createdAt,value
2023-03-22T00:02:13.823Z,77.10
2023-03-22T00:04:42.585Z,77.20
2023-03-22T00:07:09.298Z,77.10
2023-03-22T00:09:36.614Z,77.10
2023-03-22T00:12:03.581Z,77.10
2023-03-22T00:14:30.339Z,77.10
2023-03-22T00:16:57.244Z,77.10
2023-03-22T00:19:24.104Z,77.10
2023-03-22T00:21:51.432Z,77.10
2023-03-22T00:24:18.425Z,77.00
2023-03-22T00:26:47.389Z,77.10
2023-03-22T00:29:14.055Z,77.00
2023-03-22T00:31:41.172Z,77.10
2023-03-22T00:34:07.839Z,77.20
2023-03-22T00:36:34.430Z,77.20
2023-03-22T00:39:01.146Z,77.20
2023-03-22T00:41:27.863Z,77.30
2023-03-22T00:43:54.432Z,77.20
2023-03-22T00:46:22.225Z,77.20
2023-03-22T00:48:49.475Z,77.20
2023-03-22T00:51:16.984Z,77.20
2023-03-22T00:53:43.960Z,77.30
2023-03-22T00:56:15.797Z,77.30
2023-03-22T00:58:43.510Z,77.40
2023-03-22T01:01:13.572Z,77.30
2023-03-22T01:03:41.775Z,77.30
2023-03-22T01:06:08.910Z,77.30
2023-03-22T01:08:38.702Z,77.30
2023-03-22T01:11:07.133Z,77.30
2023-03-22T01:13:34.428Z,77.30
2023-03-22T01:16:01.116Z,77.30
2023-03-22T01:18:27.727Z,77.20
2023-03-22T01:20:54.770Z,77.10
2023-03-22T01:23:21.389Z,77.20
2023-03-22T01:25:48.038Z,77.20
2023-03-22T01:28:14.744Z,77.10
2023-03-22T01:30:41.867Z,77.20
2023-03-22T01:33:09.172Z,77.20
2023-03-22T01:35:36.506Z,77.10
2023-03-22T01:38:03.471Z,77.10
2023-03-22T01:40:30.150Z,77.10
2023-03-22T01:42:56.911Z,77.10
2023-03-22T01:45:35.644Z,77.00
2023-03-22T01:48:25.515Z,77.00
2023-03-22T01:51:02.854Z,77.00
2023-03-22T01:53:33.121Z,76.90
2023-03-22T01:56:00.971Z,76.90
2023-03-22T01:58:28.210Z,76.90
2023-03-22T02:00:55.533Z,76.90
2023-03-22T02:03:36.816Z,76.80
2023-03-22T02:06:03.618Z,76.80
2023-03-22T02:08:32.254Z,77.60
2023-03-22T02:11:00.213Z,76.90
2023-03-22T02:13:47.991Z,76.80
2023-03-22T02:16:25.345Z,76.90
2023-03-22T02:18:59.773Z,76.80
2023-03-22T02:21:53.212Z,76.80
2023-03-22T02:24:46.201Z,76.80
2023-03-22T02:27:40.475Z,76.80
2023-03-22T02:30:48.817Z,76.90
2023-03-22T02:33:41.766Z,77.00
2023-03-22T02:36:32.832Z,77.10
2023-03-22T02:39:18.456Z,77.30
2023-03-22T02:42:18.178Z,77.50
2023-03-22T02:45:15.827Z,77.50
2023-03-22T02:48:01.068Z,77.90
2023-03-22T02:50:40.115Z,77.90
2023-03-22T02:53:19.110Z,77.90
2023-03-22T02:55:55.112Z,77.90
2023-03-22T02:58:45.555Z,78.00
2023-03-22T03:01:29.157Z,78.20
2023-03-22T03:04:04.903Z,78.40
2023-03-22T03:06:38.837Z,78.30
2023-03-22T03:09:07.737Z,78.40
2023-03-22T03:11:34.389Z,78.60
2023-03-22T03:14:01.029Z,78.70
2023-03-22T03:16:30.767Z,78.90
2023-03-22T03:19:07.929Z,79.00
2023-03-22T03:21:54.012Z,79.00
2023-03-22T03:24:29.308Z,79.10
2023-03-22T03:27:02.342Z,79.00
2023-03-22T03:29:35.207Z,79.00
2023-03-22T03:32:14.919Z,79.10
2023-03-22T03:35:08.591Z,79.20
2023-03-22T03:37:48.810Z,79.30
2023-03-22T03:40:26.481Z,79.30
2023-03-22T03:42:56.145Z,79.30
2023-03-22T03:45:24.849Z,79.40
2023-03-22T03:47:57.028Z,79.60
2023-03-22T03:50:25.962Z,79.80
2023-03-22T03:52:55.574Z,79.80
2023-03-22T03:55:23.386Z,79.80
2023-03-22T03:57:50.153Z,79.80
2023-03-22T04:00:17.498Z,79.90
2023-03-22T04:02:44.741Z,80.00
2023-03-22T04:05:12.756Z,80.00
2023-03-22T04:07:39.656Z,80.00
2023-03-22T04:10:07.259Z,80.00
2023-03-22T04:12:34.137Z,80.00
2023-03-22T04:15:01.038Z,80.00
2023-03-22T04:17:31.999Z,80.10
2023-03-22T04:19:58.784Z,80.10
2023-03-22T04:22:26.257Z,80.10
2023-03-22T04:24:53.040Z,80.30
2023-03-22T04:27:22.265Z,80.30
2023-03-22T04:29:50.732Z,80.30
2023-03-22T04:32:22.869Z,80.30
2023-03-22T04:34:50.724Z,80.30
2023-03-22T04:37:18.183Z,80.30
2023-03-22T04:39:45.406Z,80.20
2023-03-22T04:42:12.361Z,80.20
2023-03-22T04:44:38.978Z,80.10
2023-03-22T04:47:05.709Z,80.10
2023-03-22T04:49:32.442Z,80.10
2023-03-22T04:51:59.077Z,80.10
2023-03-22T04:54:25.770Z,80.00
2023-03-22T04:56:52.473Z,80.00
2023-03-22T04:59:20.250Z,80.00
2023-03-22T05:01:51.363Z,79.90
2023-03-22T05:04:19.195Z,79.90
2023-03-22T05:06:46.970Z,79.80
2023-03-22T05:09:14.318Z,79.80
2023-03-22T05:11:41.350Z,79.80
2023-03-22T05:14:09.456Z,79.70
2023-03-22T05:16:36.845Z,79.50
2023-03-22T05:19:03.536Z,79.50
2023-03-22T05:21:37.026Z,79.50
2023-03-22T05:24:04.322Z,79.40
2023-03-22T05:26:31.144Z,79.40
2023-03-22T05:28:57.838Z,79.40
2023-03-22T05:31:24.661Z,79.40
2023-03-22T05:33:52.160Z,79.40
2023-03-22T05:36:20.637Z,79.40
2023-03-22T05:38:47.405Z,79.40
2023-03-22T05:41:14.566Z,79.40
2023-03-22T05:43:41.410Z,79.40
2023-03-22T05:46:09.747Z,79.40
2023-03-22T05:48:37.057Z,79.40
2023-03-22T05:51:09.335Z,79.40
2023-03-22T05:53:36.621Z,79.40
2023-03-22T05:56:03.411Z,79.40
2023-03-22T05:58:31.618Z,79.40
2023-03-22T06:01:01.592Z,79.40
2023-03-22T06:03:28.375Z,79.40
2023-03-22T06:05:55.161Z,79.30
2023-03-22T06:08:25.417Z,79.40
2023-03-22T06:10:53.842Z,79.40
2023-03-22T06:13:21.034Z,79.40
2023-03-22T06:15:47.894Z,79.40
2023-03-22T06:18:14.463Z,79.40
2023-03-22T06:20:42.078Z,79.30
2023-03-22T06:23:08.939Z,79.20
2023-03-22T06:25:35.689Z,79.20
2023-03-22T06:28:02.614Z,79.20
2023-03-22T06:30:29.392Z,79.20
2023-03-22T06:32:56.972Z,79.20
2023-03-22T06:35:23.623Z,79.20
2023-03-22T06:37:50.985Z,79.10
2023-03-22T06:40:17.772Z,79.00
2023-03-22T06:42:44.411Z,79.00
2023-03-22T06:45:14.564Z,78.70
2023-03-22T06:47:41.465Z,78.40
2023-03-22T06:50:09.263Z,78.40
2023-03-22T06:52:36.048Z,78.40
2023-03-22T06:55:03.217Z,78.20
2023-03-22T06:57:29.805Z,78.10
2023-03-22T06:59:56.383Z,78.00
2023-03-22T07:02:23.044Z,77.90
2023-03-22T07:04:49.636Z,77.70
2023-03-22T07:07:16.396Z,77.50
2023-03-22T07:09:43.417Z,77.50
2023-03-22T07:12:10.723Z,77.30
2023-03-22T07:14:37.772Z,77.20
2023-03-22T07:17:04.470Z,77.00
2023-03-22T07:19:31.813Z,76.80
2023-03-22T07:21:58.497Z,76.80
2023-03-22T07:24:25.222Z,76.60
2023-03-22T07:26:51.786Z,76.50
2023-03-22T07:29:18.493Z,76.60
2023-03-22T07:31:45.752Z,76.60
2023-03-22T07:34:12.507Z,76.60
2023-03-22T07:36:39.162Z,76.60
2023-03-22T07:39:05.985Z,76.60
2023-03-22T07:41:32.745Z,76.40
2023-03-22T07:44:15.017Z,76.40
2023-03-22T07:46:43.970Z,76.40
2023-03-22T07:49:11.178Z,76.30
2023-03-22T07:51:38.081Z,75.80
2023-03-22T07:54:07.534Z,75.50
2023-03-22T07:56:34.436Z,75.60
2023-03-22T07:59:01.133Z,75.70
2023-03-22T08:01:27.860Z,75.80
2023-03-22T08:03:54.534Z,75.90
2023-03-22T08:06:21.582Z,75.90
2023-03-22T08:08:48.478Z,75.50
2023-03-22T08:11:15.619Z,75.10
2023-03-22T08:13:42.271Z,75.10
2023-03-22T08:16:08.895Z,74.80
2023-03-22T08:18:35.684Z,74.50
2023-03-22T08:21:02.339Z,74.10
2023-03-22T08:23:41.050Z,73.90
2023-03-22T08:26:09.885Z,73.50
2023-03-22T08:28:36.797Z,73.90
2023-03-22T08:31:13.832Z,74.00
2023-03-22T08:33:42.066Z,74.60
2023-03-22T08:36:13.164Z,73.80
2023-03-22T08:38:39.845Z,73.60
2023-03-22T08:41:06.621Z,73.70
2023-03-22T08:43:33.363Z,73.10
2023-03-22T08:46:00.193Z,73.40
2023-03-22T08:48:29.111Z,73.40
2023-03-22T08:50:56.028Z,73.30
2023-03-22T08:53:22.940Z,73.30
2023-03-22T08:55:49.611Z,72.70
2023-03-22T08:58:18.594Z,72.90
2023-03-22T09:00:48.941Z,72.60
2023-03-22T09:03:16.520Z,72.60
2023-03-22T09:05:43.384Z,72.60
2023-03-22T09:08:18.352Z,72.60
2023-03-22T09:10:47.906Z,72.60
2023-03-22T09:13:16.855Z,72.50
2023-03-22T09:15:46.885Z,72.70
2023-03-22T09:18:15.346Z,72.90
2023-03-22T09:20:44.586Z,72.20
2023-03-22T09:23:11.948Z,72.40
2023-03-22T09:25:38.914Z,72.70
2023-03-22T09:28:05.850Z,73.00
2023-03-22T09:30:32.598Z,73.10
2023-03-22T09:32:59.223Z,72.90
2023-03-22T09:35:26.168Z,73.10
2023-03-22T09:37:54.738Z,73.30
2023-03-22T09:40:25.360Z,73.30
2023-03-22T09:42:56.571Z,73.70
2023-03-22T09:45:32.856Z,74.10
2023-03-22T09:48:08.314Z,74.40
2023-03-22T09:50:44.682Z,74.40
2023-03-22T09:53:14.778Z,74.70
2023-03-22T09:55:51.785Z,75.00
2023-03-22T09:58:28.682Z,75.20
2023-03-22T10:01:00.961Z,75.30
2023-03-22T10:03:46.387Z,75.50
2023-03-22T10:06:21.153Z,75.60
2023-03-22T10:09:06.852Z,75.80
2023-03-22T10:11:45.457Z,76.20
2023-03-22T10:14:41.294Z,76.30
2023-03-22T10:17:15.921Z,76.60
2023-03-22T10:19:51.788Z,76.90
2023-03-22T10:22:24.970Z,77.10
2023-03-22T10:24:53.631Z,77.30
2023-03-22T10:27:23.195Z,77.40
2023-03-22T10:29:52.035Z,77.60
2023-03-22T10:32:29.129Z,77.70
2023-03-22T10:34:56.738Z,77.90
2023-03-22T10:37:32.929Z,77.90
2023-03-22T10:40:06.112Z,78.00
2023-03-22T10:42:36.937Z,78.10
2023-03-22T10:45:15.305Z,78.10
2023-03-22T10:47:42.231Z,78.20
2023-03-22T10:50:18.550Z,78.30
2023-03-22T10:53:01.375Z,78.40
2023-03-22T10:55:28.455Z,78.50
2023-03-22T10:58:12.173Z,78.50
2023-03-22T11:00:52.192Z,78.60
2023-03-22T11:03:36.917Z,79.50
2023-03-22T11:06:06.780Z,78.80
2023-03-22T11:09:01.391Z,78.80
2023-03-22T11:11:36.586Z,78.80
2023-03-22T11:14:07.074Z,79.10
2023-03-22T11:16:53.868Z,79.10
2023-03-22T11:19:35.205Z,79.10
2023-03-22T11:22:05.995Z,79.00
2023-03-22T11:24:33.815Z,79.20
2023-03-22T11:27:05.256Z,78.80
2023-03-22T11:29:57.480Z,78.90
2023-03-22T11:32:37.784Z,78.80
2023-03-22T11:35:16.287Z,78.90
2023-03-22T11:37:45.801Z,78.90
2023-03-22T11:40:18.747Z,79.00
2023-03-22T11:42:46.813Z,79.70
2023-03-22T11:45:23.922Z,78.80
2023-03-22T11:47:51.106Z,78.70
2023-03-22T11:50:39.429Z,78.70
2023-03-22T11:53:11.204Z,78.60
2023-03-22T11:55:38.318Z,78.40
2023-03-22T11:58:06.660Z,78.20
2023-03-22T12:00:37.755Z,78.10
2023-03-22T12:03:16.555Z,78.20
2023-03-22T12:05:47.123Z,78.20
2023-03-22T12:08:28.714Z,78.00
2023-03-22T12:11:06.012Z,77.80
2023-03-22T12:13:54.506Z,77.90
2023-03-22T12:16:26.513Z,77.90
2023-03-22T12:19:29.887Z,77.90
2023-03-22T12:21:58.785Z,78.00
2023-03-22T12:24:29.166Z,78.00
2023-03-22T12:27:00.919Z,77.90
2023-03-22T12:29:28.920Z,77.90
2023-03-22T12:32:09.673Z,77.80
2023-03-22T12:34:40.791Z,77.70
2023-03-22T12:37:12.274Z,77.90
2023-03-22T12:39:53.990Z,77.80
2023-03-22T12:42:34.982Z,77.70
2023-03-22T12:45:27.615Z,77.70
2023-03-22T12:48:19.843Z,77.70
2023-03-22T12:50:58.129Z,77.70
2023-03-22T12:53:30.553Z,77.70
2023-03-22T12:55:58.234Z,77.60
2023-03-22T12:58:26.504Z,77.70
2023-03-22T13:01:00.294Z,77.60
2023-03-22T13:03:36.774Z,77.50
2023-03-22T13:06:28.037Z,77.60
2023-03-22T13:09:02.195Z,77.60
2023-03-22T13:11:28.877Z,77.50
2023-03-22T13:13:55.851Z,77.50
2023-03-22T13:16:24.453Z,77.50
2023-03-22T13:18:51.183Z,77.70
2023-03-22T13:21:21.257Z,77.70
2023-03-22T13:24:05.084Z,77.70
2023-03-22T13:26:53.065Z,77.60
2023-03-22T13:29:36.412Z,77.40
2023-03-22T13:32:29.786Z,77.40
2023-03-22T13:34:57.077Z,77.40
2023-03-22T13:37:42.080Z,77.40
2023-03-22T13:40:23.340Z,77.30
2023-03-22T13:42:51.219Z,77.40
2023-03-22T13:45:33.477Z,77.50
2023-03-22T13:48:29.804Z,77.60
2023-03-22T13:50:58.334Z,77.60
2023-03-22T13:53:30.611Z,77.60
2023-03-22T13:55:59.030Z,77.80
2023-03-22T13:58:53.093Z,77.80
2023-03-22T14:01:47.452Z,77.80
2023-03-22T14:04:22.586Z,77.70
2023-03-22T14:06:57.250Z,77.80
2023-03-22T14:09:49.487Z,77.80
2023-03-22T14:12:28.169Z,77.70
2023-03-22T14:15:02.390Z,77.60
2023-03-22T14:17:41.593Z,77.60
2023-03-22T14:20:15.732Z,77.70
